createdAt,value
2019-02-17T00:00:51.479Z,59.91
2019-02-17T00:01:56.557Z,59.94
2019-02-17T00:03:01.560Z,59.95
2019-02-17T00:04:06.522Z,59.97
2019-02-17T00:05:11.786Z,60.34
2019-02-17T00:06:16.705Z,60.02
2019-02-17T00:07:21.683Z,60.04
2019-02-17T00:08:26.592Z,60.09
2019-02-17T00:09:31.522Z,59.97
2019-02-17T00:10:36.463Z,59.97
2019-02-17T00:11:41.471Z,60.14
2019-02-17T00:12:46.467Z,60.14
2019-02-17T00:13:51.535Z,60.14
2019-02-17T00:14:56.546Z,60.13
2019-02-17T00:16:02.116Z,60.15
2019-02-17T00:17:06.997Z,60.13
2019-02-17T00:18:11.952Z,60.00
2019-02-17T00:19:16.910Z,60.00
2019-02-17T00:20:21.833Z,60.08
2019-02-17T00:21:26.877Z,60.06
2019-02-17T00:22:31.988Z,60.01
2019-02-17T00:23:36.944Z,60.02
2019-02-17T00:24:42.188Z,60.03
2019-02-17T00:25:47.459Z,60.05
2019-02-17T00:26:52.420Z,60.05
2019-02-17T00:27:57.703Z,60.05
2019-02-17T00:29:03.006Z,60.05
2019-02-17T00:30:08.187Z,60.17
2019-02-17T00:31:13.210Z,60.04
2019-02-17T00:32:18.150Z,60.04
2019-02-17T00:33:23.098Z,60.06
2019-02-17T00:34:28.034Z,60.05
2019-02-17T00:35:33.522Z,60.08
2019-02-17T00:36:38.830Z,60.08
2019-02-17T00:37:43.909Z,60.06
2019-02-17T00:38:49.085Z,60.04
2019-02-17T00:39:54.078Z,60.04
2019-02-17T00:40:59.393Z,60.05
2019-02-17T00:42:04.425Z,60.19
2019-02-17T00:43:09.713Z,60.19
2019-02-17T00:44:15.644Z,59.99
2019-02-17T00:45:20.645Z,60.11
2019-02-17T00:46:25.695Z,60.07
2019-02-17T00:47:30.921Z,60.07
2019-02-17T00:48:35.964Z,60.18
2019-02-17T00:49:41.958Z,60.18
2019-02-17T00:50:46.965Z,59.67
2019-02-17T00:51:51.999Z,60.19
2019-02-17T00:52:57.688Z,60.19
2019-02-17T00:54:02.613Z,60.26
2019-02-17T00:55:07.638Z,60.28
2019-02-17T00:56:12.612Z,60.41
2019-02-17T00:57:20.755Z,60.41
2019-02-17T00:58:25.847Z,60.23
2019-02-17T00:59:31.096Z,60.10
2019-02-17T01:00:36.100Z,60.41
2019-02-17T01:01:41.023Z,60.45
2019-02-17T01:02:45.997Z,60.50
2019-02-17T01:03:51.269Z,60.54
2019-02-17T01:04:56.186Z,60.55
2019-02-17T01:06:01.238Z,60.55
2019-02-17T01:07:06.414Z,60.54
2019-02-17T01:08:11.365Z,60.56
2019-02-17T01:09:16.266Z,60.40
2019-02-17T01:10:21.246Z,60.40
2019-02-17T01:11:26.214Z,60.63
2019-02-17T01:12:31.193Z,60.62
2019-02-17T01:13:39.672Z,60.65
2019-02-17T01:14:44.924Z,60.67
2019-02-17T01:15:49.830Z,60.67
2019-02-17T01:16:54.830Z,60.71
2019-02-17T01:17:59.723Z,60.73
2019-02-17T01:19:04.773Z,60.71
2019-02-17T01:20:09.888Z,60.71
2019-02-17T01:21:15.151Z,60.41
2019-02-17T01:22:20.414Z,60.75
2019-02-17T01:23:25.367Z,60.01
2019-02-17T01:24:30.298Z,60.01
2019-02-17T01:25:35.536Z,60.83
2019-02-17T01:26:40.881Z,60.94
2019-02-17T01:27:45.832Z,60.93
2019-02-17T01:28:50.765Z,60.93
2019-02-17T01:29:55.695Z,61.06
2019-02-17T01:31:00.787Z,61.06
2019-02-17T01:32:06.116Z,60.94
2019-02-17T01:33:11.033Z,60.96
2019-02-17T01:34:16.039Z,60.98
2019-02-17T01:35:21.160Z,60.99
2019-02-17T01:36:26.086Z,60.97
2019-02-17T01:37:31.123Z,60.98
2019-02-17T01:38:36.118Z,60.97
2019-02-17T01:39:42.923Z,61.02
2019-02-17T01:40:48.083Z,61.01
2019-02-17T01:41:53.110Z,61.04
2019-02-17T01:42:58.063Z,61.05
2019-02-17T01:44:03.086Z,61.08
2019-02-17T01:45:08.529Z,61.08
2019-02-17T01:46:13.533Z,61.12
2019-02-17T01:47:18.581Z,61.15
2019-02-17T01:48:23.528Z,61.15
2019-02-17T01:49:28.502Z,61.18
2019-02-17T01:50:33.548Z,61.20
2019-02-17T01:51:38.610Z,61.22
2019-02-17T01:52:43.536Z,61.25
2019-02-17T01:53:48.544Z,61.26
2019-02-17T01:54:53.863Z,61.26
2019-02-17T01:55:58.860Z,61.28
2019-02-17T01:57:03.840Z,61.26
2019-02-17T01:58:08.732Z,61.28
2019-02-17T01:59:13.743Z,61.31
2019-02-17T02:00:18.653Z,61.33
2019-02-17T02:01:23.586Z,61.33
2019-02-17T02:02:28.567Z,61.34
2019-02-17T02:03:33.821Z,61.34
2019-02-17T02:04:39.424Z,61.36
2019-02-17T02:05:44.675Z,61.39
2019-02-17T02:06:49.649Z,61.43
2019-02-17T02:07:54.567Z,61.43
2019-02-17T02:08:59.621Z,61.45
2019-02-17T02:10:05.610Z,61.45
2019-02-17T02:11:10.617Z,61.50
2019-02-17T02:12:15.555Z,61.49
2019-02-17T02:13:20.551Z,61.50
2019-02-17T02:14:25.509Z,61.53
2019-02-17T02:15:30.569Z,61.53
2019-02-17T02:16:35.859Z,61.56
2019-02-17T02:17:40.809Z,61.59
2019-02-17T02:18:45.747Z,61.60
2019-02-17T02:19:50.720Z,61.62
2019-02-17T02:20:55.893Z,61.75
2019-02-17T02:22:01.013Z,61.75
2019-02-17T02:23:06.027Z,61.64
2019-02-17T02:24:11.107Z,61.64
2019-02-17T02:25:16.032Z,61.63
2019-02-17T02:26:21.002Z,61.64
2019-02-17T02:27:26.339Z,61.62
2019-02-17T02:28:31.231Z,61.61
2019-02-17T02:29:40.964Z,61.60
2019-02-17T02:30:43.507Z,61.61
2019-02-17T02:31:48.470Z,61.61
2019-02-17T02:32:53.366Z,61.62
2019-02-17T02:33:58.639Z,61.61
2019-02-17T02:35:03.662Z,61.65
2019-02-17T02:36:09.088Z,61.63
2019-02-17T02:37:14.526Z,61.65
2019-02-17T02:38:19.459Z,61.63
2019-02-17T02:39:24.388Z,61.64
2019-02-17T02:40:29.342Z,61.64
2019-02-17T02:41:35.165Z,61.65
2019-02-17T02:42:40.248Z,61.63
2019-02-17T02:43:45.571Z,61.64
2019-02-17T02:44:50.531Z,61.64
2019-02-17T02:45:55.507Z,61.66
2019-02-17T02:47:01.461Z,61.66
2019-02-17T02:48:06.466Z,61.66
2019-02-17T02:49:11.461Z,61.66
2019-02-17T02:50:16.528Z,61.70
2019-02-17T02:51:21.448Z,61.69
2019-02-17T02:52:26.396Z,61.71
2019-02-17T02:53:31.656Z,61.73
2019-02-17T02:54:36.622Z,61.74
2019-02-17T02:55:42.318Z,61.76
2019-02-17T02:56:47.316Z,61.77
2019-02-17T02:57:52.675Z,61.76
2019-02-17T02:58:57.994Z,61.79
2019-02-17T03:00:03.228Z,61.81
2019-02-17T03:01:08.887Z,61.85
2019-02-17T03:02:13.856Z,61.87
2019-02-17T03:03:18.776Z,61.86
2019-02-17T03:04:23.693Z,61.89
2019-02-17T03:05:28.777Z,61.89
2019-02-17T03:06:42.665Z,61.91
2019-02-17T03:07:47.728Z,61.92
2019-02-17T03:08:52.647Z,61.94
2019-02-17T03:09:58.195Z,61.94
2019-02-17T03:11:03.173Z,61.96
2019-02-17T03:12:08.055Z,62.00
2019-02-17T03:13:13.303Z,62.02
2019-02-17T03:14:18.300Z,62.06
2019-02-17T03:15:23.510Z,62.08
2019-02-17T03:16:28.840Z,62.13
2019-02-17T03:17:33.818Z,62.18
2019-02-17T03:18:38.761Z,62.24
2019-02-17T03:19:43.880Z,62.25
2019-02-17T03:20:48.891Z,62.28
2019-02-17T03:21:54.378Z,62.33
2019-02-17T03:22:59.438Z,62.33
2019-02-17T03:24:04.799Z,62.38
2019-02-17T03:25:10.112Z,62.38
2019-02-17T03:26:15.151Z,62.39
2019-02-17T03:27:20.462Z,62.39
2019-02-17T03:28:25.492Z,62.41
2019-02-17T03:29:30.871Z,62.40
2019-02-17T03:30:35.847Z,62.39
2019-02-17T03:31:40.830Z,62.41
2019-02-17T03:32:46.087Z,62.42
2019-02-17T03:33:51.081Z,62.43
2019-02-17T03:34:55.940Z,62.44
2019-02-17T03:36:01.237Z,62.45
2019-02-17T03:37:06.141Z,62.47
2019-02-17T03:38:11.095Z,62.48
2019-02-17T03:39:16.046Z,62.48
2019-02-17T03:40:21.299Z,62.53
2019-02-17T03:41:26.387Z,62.58
2019-02-17T03:42:31.443Z,62.61
2019-02-17T03:43:36.661Z,62.64
2019-02-17T03:44:41.928Z,62.67
2019-02-17T03:45:47.318Z,62.71
2019-02-17T03:46:52.795Z,62.73
2019-02-17T03:47:57.772Z,62.75
2019-02-17T03:49:02.849Z,62.76
2019-02-17T03:50:07.900Z,62.83
2019-02-17T03:51:13.190Z,62.87
2019-02-17T03:52:18.140Z,62.88
2019-02-17T03:53:23.115Z,62.91
2019-02-17T03:54:28.181Z,62.91
2019-02-17T03:55:33.521Z,62.88
2019-02-17T03:56:38.449Z,62.91
2019-02-17T03:57:43.354Z,62.90
2019-02-17T03:58:48.925Z,62.89
2019-02-17T03:59:53.877Z,62.88
2019-02-17T04:00:58.957Z,62.90
2019-02-17T04:02:04.296Z,62.89
2019-02-17T04:03:09.245Z,62.88
2019-02-17T04:04:14.255Z,62.86
2019-02-17T04:05:19.245Z,62.88
2019-02-17T04:06:24.652Z,62.91
2019-02-17T04:07:30.080Z,62.93
2019-02-17T04:08:35.010Z,62.95
2019-02-17T04:09:40.429Z,62.99
2019-02-17T04:10:46.184Z,63.02
2019-02-17T04:11:51.668Z,63.03
2019-02-17T04:12:56.808Z,63.08
2019-02-17T04:14:01.730Z,63.06
2019-02-17T04:15:06.878Z,63.09
2019-02-17T04:16:11.885Z,63.13
2019-02-17T04:17:17.204Z,63.16
2019-02-17T04:18:22.344Z,63.19
2019-02-17T04:19:27.348Z,63.16
2019-02-17T04:20:32.371Z,63.15
2019-02-17T04:21:37.392Z,63.17
2019-02-17T04:22:42.651Z,63.19
2019-02-17T04:23:47.594Z,63.22
2019-02-17T04:24:52.814Z,63.21
2019-02-17T04:25:58.308Z,63.25
2019-02-17T04:27:03.252Z,63.26
2019-02-17T04:28:08.582Z,63.27
2019-02-17T04:29:13.616Z,63.32
2019-02-17T04:30:28.493Z,63.33
2019-02-17T04:31:25.891Z,63.33
2019-02-17T04:32:30.860Z,63.36
2019-02-17T04:33:35.966Z,63.36
2019-02-17T04:34:40.956Z,63.38
2019-02-17T04:35:45.883Z,63.40
2019-02-17T04:36:50.903Z,63.39
2019-02-17T04:37:55.879Z,63.39
2019-02-17T04:39:01.177Z,63.40
2019-02-17T04:40:08.146Z,63.43
2019-02-17T04:41:13.062Z,63.44
2019-02-17T04:42:17.969Z,63.46
2019-02-17T04:43:23.005Z,63.46
2019-02-17T04:44:27.901Z,63.45
2019-02-17T04:45:32.849Z,63.48
2019-02-17T04:46:37.921Z,63.46
2019-02-17T04:47:42.941Z,63.43
2019-02-17T04:48:48.171Z,63.42
2019-02-17T04:49:53.708Z,63.42
2019-02-17T04:50:59.040Z,63.43
2019-02-17T04:52:04.294Z,63.48
2019-02-17T04:53:09.860Z,63.45
2019-02-17T04:54:15.034Z,63.44
2019-02-17T04:55:19.990Z,63.45
2019-02-17T04:56:24.883Z,63.48
2019-02-17T04:57:30.248Z,63.50
2019-02-17T04:58:35.575Z,63.50
2019-02-17T04:59:40.466Z,63.51
2019-02-17T05:00:45.420Z,63.54
2019-02-17T05:01:50.503Z,63.57
2019-02-17T05:02:55.621Z,63.56
2019-02-17T05:04:00.769Z,63.59
2019-02-17T05:05:06.030Z,63.60
2019-02-17T05:06:11.034Z,63.61
2019-02-17T05:07:15.962Z,63.61
2019-02-17T05:08:21.021Z,63.65
2019-02-17T05:09:26.096Z,63.65
2019-02-17T05:10:31.377Z,63.65
2019-02-17T05:11:36.391Z,63.68
2019-02-17T05:12:41.698Z,63.67
2019-02-17T05:13:46.609Z,63.65
2019-02-17T05:14:52.103Z,63.69
2019-02-17T05:15:57.139Z,63.70
2019-02-17T05:17:02.382Z,63.71
2019-02-17T05:18:07.377Z,63.71
2019-02-17T05:19:12.362Z,63.72
2019-02-17T05:20:17.877Z,63.74
2019-02-17T05:21:22.863Z,63.76
2019-02-17T05:22:28.105Z,63.78
2019-02-17T05:23:33.630Z,63.81
2019-02-17T05:24:38.550Z,63.83
2019-02-17T05:25:43.769Z,63.90
2019-02-17T05:26:48.700Z,63.91
2019-02-17T05:27:53.740Z,63.94
2019-02-17T05:28:58.882Z,63.97
2019-02-17T05:30:04.188Z,63.98
2019-02-17T05:31:09.252Z,64.01
2019-02-17T05:32:14.240Z,64.03
2019-02-17T05:33:19.305Z,64.07
2019-02-17T05:34:24.271Z,64.09
2019-02-17T05:35:29.266Z,64.07
2019-02-17T05:36:34.296Z,64.11
2019-02-17T05:37:39.258Z,64.14
2019-02-17T05:38:44.183Z,64.20
2019-02-17T05:39:51.037Z,64.19
2019-02-17T05:40:56.224Z,64.19
2019-02-17T05:42:01.318Z,64.20
2019-02-17T05:43:06.247Z,64.20
2019-02-17T05:44:11.234Z,64.19
2019-02-17T05:45:16.549Z,64.21
2019-02-17T05:46:21.477Z,64.20
2019-02-17T05:47:26.485Z,64.19
2019-02-17T05:48:37.024Z,64.21
2019-02-17T05:49:42.103Z,64.21
2019-02-17T05:50:49.020Z,64.20
2019-02-17T05:51:57.877Z,64.21
2019-02-17T05:53:02.903Z,64.24
2019-02-17T05:54:07.979Z,64.24
2019-02-17T05:55:13.012Z,64.25
2019-02-17T05:56:18.073Z,64.27
2019-02-17T05:57:22.997Z,64.26
2019-02-17T05:58:27.973Z,64.27
2019-02-17T05:59:32.969Z,64.26
2019-02-17T06:00:38.946Z,64.25
2019-02-17T06:01:44.117Z,64.24
2019-02-17T06:02:48.991Z,64.24
2019-02-17T06:03:54.070Z,64.27
2019-02-17T06:04:59.618Z,64.30
2019-02-17T06:06:04.596Z,64.33
2019-02-17T06:07:09.582Z,64.33
2019-02-17T06:08:14.924Z,64.35
2019-02-17T06:09:19.889Z,64.33
2019-02-17T06:10:24.805Z,64.34
2019-02-17T06:11:29.743Z,64.36
2019-02-17T06:12:34.822Z,64.32
2019-02-17T06:13:39.718Z,64.33
2019-02-17T06:14:45.073Z,64.33
2019-02-17T06:15:51.302Z,64.34
2019-02-17T06:16:56.507Z,64.34
2019-02-17T06:18:01.453Z,64.35
2019-02-17T06:19:06.515Z,64.34
2019-02-17T06:20:11.912Z,64.33
2019-02-17T06:21:17.193Z,64.32
2019-02-17T06:22:22.136Z,64.32
2019-02-17T06:23:27.430Z,64.33
2019-02-17T06:24:32.488Z,64.35
2019-02-17T06:25:37.515Z,64.34
2019-02-17T06:26:42.449Z,64.34
2019-02-17T06:27:47.347Z,64.36
2019-02-17T06:28:52.389Z,64.38
2019-02-17T06:29:57.398Z,64.41
2019-02-17T06:31:02.513Z,64.43
2019-02-17T06:32:07.516Z,64.46
2019-02-17T06:33:12.444Z,64.47
2019-02-17T06:34:17.784Z,64.47
2019-02-17T06:35:22.751Z,64.48
2019-02-17T06:36:27.990Z,64.46
2019-02-17T06:37:32.883Z,64.44
2019-02-17T06:38:37.806Z,64.43
2019-02-17T06:39:43.103Z,64.43
2019-02-17T06:40:48.291Z,64.44
2019-02-17T06:41:53.995Z,64.47
2019-02-17T06:42:59.227Z,64.45
2019-02-17T06:44:04.308Z,64.44
2019-02-17T06:45:09.796Z,64.43
2019-02-17T06:46:19.203Z,64.42
2019-02-17T06:47:28.817Z,64.44
2019-02-17T06:48:33.791Z,64.45
2019-02-17T06:49:38.624Z,64.43
2019-02-17T06:50:43.886Z,64.43
2019-02-17T06:51:48.887Z,64.41
2019-02-17T06:52:53.827Z,64.42
2019-02-17T06:53:58.937Z,64.47
2019-02-17T06:55:21.095Z,64.50
2019-02-17T06:56:30.411Z,64.52
2019-02-17T06:57:39.156Z,64.53
2019-02-17T06:58:44.147Z,64.58
2019-02-17T06:59:51.009Z,64.65
2019-02-17T07:00:58.132Z,64.66
2019-02-17T07:02:03.600Z,64.68
2019-02-17T07:03:08.522Z,64.70
2019-02-17T07:04:13.567Z,64.72
2019-02-17T07:05:27.880Z,64.75
2019-02-17T07:06:42.742Z,64.78
2019-02-17T07:07:47.655Z,64.77
2019-02-17T07:08:53.158Z,64.74
2019-02-17T07:09:58.323Z,64.77
2019-02-17T07:11:03.425Z,64.77
2019-02-17T07:12:08.370Z,64.75
2019-02-17T07:13:13.289Z,64.76
2019-02-17T07:14:18.278Z,64.75
2019-02-17T07:15:23.583Z,64.75
2019-02-17T07:16:28.551Z,64.74
2019-02-17T07:17:33.472Z,64.74
2019-02-17T07:18:38.441Z,64.73
2019-02-17T07:19:43.424Z,64.72
2019-02-17T07:20:48.394Z,64.72
2019-02-17T07:21:53.344Z,64.70
2019-02-17T07:22:58.401Z,64.68
2019-02-17T07:24:03.454Z,64.69
2019-02-17T07:25:08.518Z,64.70
2019-02-17T07:26:13.618Z,64.67
2019-02-17T07:27:18.548Z,64.65
2019-02-17T07:28:23.543Z,64.63
2019-02-17T07:29:28.502Z,64.61
2019-02-17T07:30:33.960Z,64.59
2019-02-17T07:31:38.994Z,64.59
2019-02-17T07:32:44.249Z,64.56
2019-02-17T07:33:49.546Z,64.57
2019-02-17T07:34:54.794Z,64.53
2019-02-17T07:36:00.021Z,64.53
2019-02-17T07:37:05.105Z,64.53
2019-02-17T07:38:10.380Z,64.52
2019-02-17T07:39:15.724Z,64.52
2019-02-17T07:40:20.688Z,64.51
2019-02-17T07:41:26.089Z,64.49
2019-02-17T07:42:31.139Z,64.49
2019-02-17T07:43:36.081Z,64.47
2019-02-17T07:44:41.309Z,64.45
2019-02-17T07:45:46.370Z,64.43
2019-02-17T07:46:51.608Z,64.46
2019-02-17T07:47:56.562Z,64.47
2019-02-17T07:49:01.471Z,64.47
2019-02-17T07:50:07.341Z,64.50
2019-02-17T07:51:12.585Z,64.48
2019-02-17T07:52:17.605Z,64.46
2019-02-17T07:53:22.568Z,64.47
2019-02-17T07:54:27.668Z,64.46
2019-02-17T07:55:32.617Z,64.46
2019-02-17T07:56:37.613Z,64.46
2019-02-17T07:57:42.618Z,64.42
2019-02-17T07:58:47.518Z,64.43
2019-02-17T07:59:52.618Z,64.39
2019-02-17T08:00:57.557Z,64.39
2019-02-17T08:02:02.572Z,64.36
2019-02-17T08:03:08.065Z,64.32
2019-02-17T08:04:13.264Z,64.29
2019-02-17T08:05:18.212Z,64.27
2019-02-17T08:06:24.786Z,64.25
2019-02-17T08:07:31.355Z,64.23
2019-02-17T08:08:38.193Z,64.21
2019-02-17T08:09:44.888Z,64.19
2019-02-17T08:10:49.705Z,64.17
2019-02-17T08:11:54.365Z,64.15
2019-02-17T08:12:59.095Z,64.12
2019-02-17T08:14:03.499Z,64.07
2019-02-17T08:15:08.927Z,64.02
2019-02-17T08:16:13.787Z,63.97
2019-02-17T08:17:18.290Z,63.92
2019-02-17T08:18:22.740Z,63.89
2019-02-17T08:19:27.779Z,63.83
2019-02-17T08:20:32.285Z,63.80
2019-02-17T08:21:36.791Z,63.76
2019-02-17T08:22:41.202Z,63.74
2019-02-17T08:23:45.917Z,63.71
2019-02-17T08:24:50.657Z,63.67
2019-02-17T08:25:55.278Z,63.63
2019-02-17T08:26:59.759Z,63.56
2019-02-17T08:28:04.245Z,63.54
2019-02-17T08:29:08.952Z,63.52
2019-02-17T08:30:16.030Z,63.49
2019-02-17T08:31:19.756Z,63.46
2019-02-17T08:32:24.266Z,63.42
2019-02-17T08:33:28.707Z,63.36
2019-02-17T08:34:33.176Z,63.31
2019-02-17T08:35:37.742Z,63.28
2019-02-17T08:36:42.486Z,63.20
2019-02-17T08:37:47.068Z,63.13
2019-02-17T08:38:51.708Z,63.07
2019-02-17T08:39:56.166Z,63.01
2019-02-17T08:41:00.906Z,62.96
2019-02-17T08:42:05.743Z,62.90
2019-02-17T08:43:10.132Z,62.86
2019-02-17T08:44:14.829Z,62.77
2019-02-17T08:45:19.325Z,62.72
2019-02-17T08:46:23.833Z,62.67
2019-02-17T08:47:28.375Z,62.62
2019-02-17T08:48:32.876Z,62.56
2019-02-17T08:49:37.467Z,62.49
2019-02-17T08:50:42.312Z,62.45
2019-02-17T08:51:46.824Z,62.39
2019-02-17T08:52:51.279Z,62.33
2019-02-17T08:53:56.130Z,62.28
2019-02-17T08:55:00.620Z,62.25
2019-02-17T08:56:05.084Z,62.21
2019-02-17T08:57:10.102Z,62.18
2019-02-17T08:58:14.519Z,62.13
2019-02-17T08:59:19.261Z,62.09
2019-02-17T09:00:23.716Z,62.01
2019-02-17T09:01:28.236Z,61.95
2019-02-17T09:02:33.352Z,61.87
2019-02-17T09:03:38.147Z,61.84
2019-02-17T09:04:42.643Z,61.82
2019-02-17T09:05:47.478Z,61.78
2019-02-17T09:06:52.067Z,61.72
2019-02-17T09:07:56.945Z,61.69
2019-02-17T09:09:01.344Z,61.58
2019-02-17T09:10:07.164Z,61.55
2019-02-17T09:11:11.725Z,61.55
2019-02-17T09:12:16.530Z,61.49
2019-02-17T09:13:20.982Z,61.41
2019-02-17T09:14:25.434Z,61.34
2019-02-17T09:15:29.899Z,61.31
2019-02-17T09:16:34.467Z,61.28
2019-02-17T09:17:38.857Z,61.25
2019-02-17T09:18:43.291Z,61.23
2019-02-17T09:19:47.997Z,61.17
2019-02-17T09:20:52.969Z,61.13
2019-02-17T09:21:57.585Z,61.06
2019-02-17T09:23:01.975Z,61.00
2019-02-17T09:24:06.371Z,60.94
2019-02-17T09:25:11.177Z,60.87
2019-02-17T09:26:15.596Z,60.77
2019-02-17T09:27:20.151Z,60.70
2019-02-17T09:28:24.689Z,60.61
2019-02-17T09:29:29.132Z,60.54
2019-02-17T09:30:33.714Z,60.46
2019-02-17T09:31:38.241Z,60.42
2019-02-17T09:32:42.658Z,60.35
2019-02-17T09:33:47.090Z,60.34
2019-02-17T09:34:51.530Z,60.28
2019-02-17T09:35:55.974Z,60.25
2019-02-17T09:37:00.623Z,60.22
2019-02-17T09:38:05.393Z,60.19
2019-02-17T09:39:10.404Z,60.17
2019-02-17T09:40:15.249Z,60.12
2019-02-17T09:41:19.745Z,60.10
2019-02-17T09:42:24.513Z,60.06
2019-02-17T09:43:29.396Z,60.04
2019-02-17T09:44:33.790Z,60.03
2019-02-17T09:45:38.225Z,60.02
2019-02-17T09:46:42.824Z,60.02
2019-02-17T09:47:47.355Z,60.02
2019-02-17T09:48:52.279Z,60.00
2019-02-17T09:49:57.501Z,59.97
2019-02-17T09:51:02.799Z,59.96
2019-02-17T09:52:07.775Z,59.95
2019-02-17T09:53:12.904Z,59.92
2019-02-17T09:54:17.907Z,59.88
2019-02-17T09:55:23.190Z,59.85
2019-02-17T09:56:28.251Z,59.81
2019-02-17T09:57:33.372Z,59.78
2019-02-17T09:58:38.608Z,59.72
2019-02-17T09:59:43.828Z,59.69
2019-02-17T10:00:49.061Z,59.58
2019-02-17T10:01:54.131Z,59.55
2019-02-17T10:02:59.652Z,59.55
2019-02-17T10:04:05.042Z,59.47
2019-02-17T10:05:10.133Z,59.41
2019-02-17T10:06:15.178Z,59.35
2019-02-17T10:07:20.244Z,59.31
2019-02-17T10:08:25.320Z,59.26
2019-02-17T10:09:30.310Z,59.17
2019-02-17T10:10:35.274Z,59.08
2019-02-17T10:11:40.320Z,58.98
2019-02-17T10:12:45.725Z,58.91
2019-02-17T10:13:51.030Z,58.87
2019-02-17T10:14:55.967Z,58.78
2019-02-17T10:16:01.043Z,58.74
2019-02-17T10:17:06.333Z,58.69
2019-02-17T10:18:11.486Z,58.62
2019-02-17T10:19:16.824Z,58.52
2019-02-17T10:20:21.786Z,58.46
2019-02-17T10:21:26.747Z,58.39
2019-02-17T10:22:31.994Z,58.34
2019-02-17T10:23:37.206Z,58.30
2019-02-17T10:24:42.172Z,58.24
2019-02-17T10:25:47.116Z,58.19
2019-02-17T10:26:52.019Z,58.15
2019-02-17T10:27:57.306Z,58.10
2019-02-17T10:29:02.592Z,58.11
2019-02-17T10:30:09.179Z,57.64
2019-02-17T10:31:14.293Z,57.64
2019-02-17T10:32:20.120Z,57.96
2019-02-17T10:33:25.337Z,57.91
2019-02-17T10:34:30.262Z,58.23
2019-02-17T10:35:35.201Z,58.23
2019-02-17T10:36:40.361Z,57.81
2019-02-17T10:37:45.355Z,57.75
2019-02-17T10:38:50.713Z,57.70
2019-02-17T10:39:56.216Z,57.64
2019-02-17T10:41:01.522Z,57.61
2019-02-17T10:42:06.497Z,57.54
2019-02-17T10:43:11.732Z,57.45
2019-02-17T10:44:16.712Z,57.37
2019-02-17T10:45:21.982Z,57.30
2019-02-17T10:46:27.002Z,57.18
2019-02-17T10:47:32.347Z,57.11
2019-02-17T10:48:37.331Z,56.89
2019-02-17T10:49:42.677Z,56.89
2019-02-17T10:50:48.103Z,56.84
2019-02-17T10:51:53.137Z,56.79
2019-02-17T10:52:58.153Z,56.78
2019-02-17T10:54:03.136Z,56.71
2019-02-17T10:55:08.576Z,56.65
2019-02-17T10:56:13.806Z,56.60
2019-02-17T10:57:18.867Z,56.55
2019-02-17T10:58:24.235Z,56.43
2019-02-17T10:59:29.234Z,56.38
2019-02-17T11:00:34.267Z,56.32
2019-02-17T11:01:39.596Z,56.26
2019-02-17T11:02:47.443Z,56.22
2019-02-17T11:04:02.916Z,56.16
2019-02-17T11:05:08.186Z,56.11
2019-02-17T11:06:13.495Z,56.02
2019-02-17T11:07:18.787Z,55.98
2019-02-17T11:08:23.759Z,55.91
2019-02-17T11:09:28.685Z,55.85
2019-02-17T11:10:33.805Z,55.81
2019-02-17T11:11:38.795Z,55.36
2019-02-17T11:12:43.791Z,55.36
2019-02-17T11:13:48.745Z,55.56
2019-02-17T11:14:53.752Z,55.40
2019-02-17T11:15:58.736Z,55.37
2019-02-17T11:17:03.708Z,55.26
2019-02-17T11:18:08.689Z,55.14
2019-02-17T11:19:13.625Z,55.34
2019-02-17T11:20:18.741Z,54.90
2019-02-17T11:21:23.777Z,54.77
2019-02-17T11:22:28.834Z,54.65
2019-02-17T11:23:33.943Z,54.57
2019-02-17T11:24:39.246Z,54.47
2019-02-17T11:25:44.625Z,54.36
2019-02-17T11:26:49.836Z,54.27
2019-02-17T11:27:54.886Z,54.22
2019-02-17T11:28:59.880Z,54.12
2019-02-17T11:30:06.013Z,54.10
2019-02-17T11:31:11.233Z,54.07
2019-02-17T11:32:16.237Z,54.02
2019-02-17T11:33:21.515Z,53.97
2019-02-17T11:34:26.635Z,53.95
2019-02-17T11:35:31.888Z,53.91
2019-02-17T11:36:36.783Z,53.77
2019-02-17T11:37:41.779Z,53.71
2019-02-17T11:38:47.053Z,53.67
2019-02-17T11:39:52.518Z,53.66
2019-02-17T11:40:57.583Z,53.64
2019-02-17T11:42:02.602Z,53.52
2019-02-17T11:43:07.721Z,53.45
2019-02-17T11:44:13.029Z,53.38
2019-02-17T11:45:18.468Z,53.40
2019-02-17T11:46:23.376Z,53.38
2019-02-17T11:47:28.369Z,53.33
2019-02-17T11:48:33.502Z,53.31
2019-02-17T11:49:38.556Z,53.26
2019-02-17T11:50:43.767Z,53.21
2019-02-17T11:51:48.921Z,53.16
2019-02-17T11:52:54.189Z,53.03
2019-02-17T11:53:59.172Z,52.94
2019-02-17T11:55:04.519Z,52.84
2019-02-17T11:56:09.608Z,52.75
2019-02-17T11:57:14.837Z,52.67
2019-02-17T11:58:19.823Z,52.57
2019-02-17T11:59:24.985Z,52.50
2019-02-17T12:00:30.004Z,52.48
2019-02-17T12:01:34.910Z,52.43
2019-02-17T12:02:39.900Z,52.32
2019-02-17T12:03:45.197Z,52.22
2019-02-17T12:04:50.140Z,52.13
2019-02-17T12:05:55.169Z,52.02
2019-02-17T12:07:00.423Z,51.96
2019-02-17T12:08:05.399Z,51.92
2019-02-17T12:09:11.907Z,51.86
2019-02-17T12:10:17.269Z,51.74
2019-02-17T12:11:22.336Z,51.69
2019-02-17T12:12:27.401Z,51.61
2019-02-17T12:13:32.388Z,51.50
2019-02-17T12:14:37.659Z,51.45
2019-02-17T12:15:42.651Z,51.40
2019-02-17T12:16:47.906Z,51.28
2019-02-17T12:17:52.967Z,51.24
2019-02-17T12:18:57.969Z,51.18
2019-02-17T12:20:23.542Z,51.16
2019-02-17T12:21:45.164Z,51.12
2019-02-17T12:22:56.213Z,51.03
2019-02-17T12:24:11.467Z,50.96
2019-02-17T12:25:21.584Z,50.89
2019-02-17T12:26:43.986Z,50.88
2019-02-17T12:28:12.289Z,50.86
2019-02-17T12:29:23.225Z,50.85
2019-02-17T12:30:28.307Z,50.78
2019-02-17T12:31:35.897Z,50.70
2019-02-17T12:32:41.221Z,50.58
2019-02-17T12:33:46.389Z,50.45
2019-02-17T12:34:51.441Z,50.29
2019-02-17T12:35:56.403Z,50.23
2019-02-17T12:37:01.478Z,50.14
2019-02-17T12:38:06.439Z,50.10
2019-02-17T12:39:11.494Z,50.13
2019-02-17T12:40:16.585Z,50.12
2019-02-17T12:41:21.760Z,50.07
2019-02-17T12:42:26.702Z,50.00
2019-02-17T12:43:31.763Z,49.94
2019-02-17T12:44:37.129Z,49.88
2019-02-17T12:45:42.107Z,49.85
2019-02-17T12:46:47.604Z,49.78
2019-02-17T12:47:57.832Z,49.70
2019-02-17T12:48:59.520Z,49.63
2019-02-17T12:50:05.153Z,49.59
2019-02-17T12:51:10.203Z,49.51
2019-02-17T12:52:15.522Z,49.39
2019-02-17T12:53:20.523Z,49.20
2019-02-17T12:54:29.205Z,49.12
2019-02-17T12:55:32.332Z,48.99
2019-02-17T12:56:37.241Z,48.92
2019-02-17T12:57:42.440Z,48.76
2019-02-17T12:58:47.639Z,48.68
2019-02-17T12:59:52.986Z,48.64
2019-02-17T13:00:58.184Z,48.58
2019-02-17T13:02:03.475Z,48.53
2019-02-17T13:03:08.557Z,48.48
2019-02-17T13:04:13.538Z,48.39
2019-02-17T13:05:18.846Z,48.36
2019-02-17T13:06:23.779Z,48.32
2019-02-17T13:07:28.849Z,48.29
2019-02-17T13:08:33.875Z,48.19
2019-02-17T13:09:38.929Z,48.10
2019-02-17T13:10:43.849Z,48.11
2019-02-17T13:11:48.858Z,48.08
2019-02-17T13:12:53.781Z,48.11
2019-02-17T13:13:58.823Z,48.03
2019-02-17T13:15:04.096Z,47.99
2019-02-17T13:16:09.079Z,47.96
2019-02-17T13:17:14.067Z,47.91
2019-02-17T13:18:19.042Z,47.91
2019-02-17T13:19:23.967Z,47.93
2019-02-17T13:20:29.138Z,47.89
2019-02-17T13:21:34.061Z,47.88
2019-02-17T13:22:39.152Z,47.84
2019-02-17T13:23:44.105Z,47.80
2019-02-17T13:24:49.258Z,47.74
2019-02-17T13:25:54.216Z,47.69
2019-02-17T13:26:59.145Z,47.66
2019-02-17T13:28:04.208Z,47.60
2019-02-17T13:29:09.205Z,47.56
2019-02-17T13:30:17.392Z,47.53
2019-02-17T13:31:22.437Z,47.46
2019-02-17T13:32:27.570Z,47.39
2019-02-17T13:33:39.243Z,47.31
2019-02-17T13:34:39.128Z,47.21
2019-02-17T13:35:44.059Z,47.21
2019-02-17T13:36:49.012Z,47.12
2019-02-17T13:37:54.313Z,47.07
2019-02-17T13:38:59.841Z,47.01
2019-02-17T13:40:05.415Z,46.98
2019-02-17T13:41:10.352Z,46.92
2019-02-17T13:42:15.676Z,46.89
2019-02-17T13:43:20.909Z,46.93
2019-02-17T13:44:26.430Z,46.90
2019-02-17T13:45:31.408Z,46.88
2019-02-17T13:46:36.390Z,46.68
2019-02-17T13:47:41.356Z,46.60
2019-02-17T13:48:46.354Z,46.53
2019-02-17T13:49:51.362Z,46.52
2019-02-17T13:50:56.384Z,46.40
2019-02-17T13:52:01.661Z,46.35
2019-02-17T13:53:11.726Z,46.20
2019-02-17T13:54:13.225Z,46.06
2019-02-17T13:55:18.947Z,45.94
2019-02-17T13:56:23.961Z,45.84
2019-02-17T13:57:29.293Z,45.77
2019-02-17T13:58:34.787Z,45.77
2019-02-17T13:59:39.711Z,45.73
2019-02-17T14:00:45.104Z,45.69
2019-02-17T14:01:50.477Z,45.66